Time;durP1;ratioP1;P1;durP2;ratioP2;P2;SDS_P1;SDS_P2;PMS_P1;PMS_P2;Temp;Humidity;BMP_temperature;BMP_pressure;BME280_temperature;BME280_humidity;BME280_pressure;Samples;Min_cycle;Max_cycle;Signal;HPM_P1;HPM_P2
2021/10/16 00:00:51;;;;;;;5.60;2.50;;;10.10;99.90;;;;;;4127884;28;20030;-74
2021/10/16 00:02:51;;;;;;;2.22;1.75;;;10.00;99.90;;;;;;4139803;28;20110;-74
2021/10/16 00:04:52;;;;;;;7.53;2.28;;;10.00;99.90;;;;;;4136335;28;20049;-74
2021/10/16 00:06:52;;;;;;;8.00;2.10;;;10.00;99.90;;;;;;4131487;28;20037;-74
2021/10/16 00:08:53;;;;;;;4.07;1.88;;;10.00;99.90;;;;;;4132026;28;20090;-74
2021/10/16 00:10:55;;;;;;;6.20;2.63;;;10.00;99.90;;;;;;4138903;28;20030;-74
2021/10/16 00:12:55;;;;;;;4.18;1.90;;;9.90;99.90;;;;;;4138725;28;20034;-74
2021/10/16 00:14:56;;;;;;;4.00;2.10;;;9.90;99.90;;;;;;4133379;28;20839;-74
2021/10/16 00:16:56;;;;;;;3.47;2.13;;;9.90;99.90;;;;;;4132040;28;20042;-74
2021/10/16 00:18:57;;;;;;;5.18;1.85;;;9.90;99.90;;;;;;4137487;28;20379;-74
2021/10/16 00:20:59;;;;;;;5.20;2.30;;;9.90;99.90;;;;;;4130118;28;20033;-75
2021/10/16 00:22:59;;;;;;;6.60;2.35;;;9.90;99.90;;;;;;4138822;28;20038;-75
2021/10/16 00:25:00;;;;;;;5.65;2.45;;;9.90;99.90;;;;;;4140135;28;20512;-74
2021/10/16 00:27:00;;;;;;;6.68;2.50;;;9.90;99.90;;;;;;4138339;28;20631;-75
2021/10/16 00:29:02;;;;;;;4.85;2.47;;;9.90;99.90;;;;;;4113638;28;20054;-74
2021/10/16 00:31:02;;;;;;;5.43;2.30;;;9.90;99.90;;;;;;4134301;28;20092;-74
2021/10/16 00:33:03;;;;;;;3.15;2.20;;;9.90;99.90;;;;;;4138141;28;20061;-75
2021/10/16 00:35:04;;;;;;;4.70;2.35;;;9.90;99.90;;;;;;4142000;28;20484;-74
2021/10/16 00:37:05;;;;;;;6.57;2.55;;;9.90;99.90;;;;;;4134268;28;20038;-74
2021/10/16 00:39:05;;;;;;;3.35;1.88;;;9.90;99.90;;;;;;4131391;28;20035;-74
2021/10/16 00:41:06;;;;;;;5.15;2.47;;;9.90;99.90;;;;;;4139259;28;20491;-75
2021/10/16 00:43:06;;;;;;;7.32;2.38;;;9.90;99.90;;;;;;4133334;28;20037;-74
2021/10/16 00:45:08;;;;;;;12.73;2.10;;;9.90;99.90;;;;;;4132306;28;20485;-74
2021/10/16 00:47:08;;;;;;;4.38;2.35;;;9.90;99.90;;;;;;4136392;28;20042;-74
2021/10/16 00:49:09;;;;;;;3.00;1.70;;;9.80;99.90;;;;;;4140128;28;20033;-75
2021/10/16 00:51:10;;;;;;;8.18;2.45;;;9.80;99.90;;;;;;4132814;28;20060;-74
2021/10/16 00:53:12;;;;;;;3.30;1.80;;;9.80;99.90;;;;;;4138846;28;20042;-74
2021/10/16 00:55:14;;;;;;;5.35;2.17;;;9.70;99.90;;;;;;4141354;28;20029;-74
2021/10/16 00:57:15;;;;;;;5.03;2.13;;;9.70;99.90;;;;;;4134633;28;20042;-74
2021/10/16 00:59:17;;;;;;;5.03;2.20;;;9.70;99.90;;;;;;4133049;28;20052;-75
2021/10/16 01:01:18;;;;;;;5.53;2.20;;;9.70;99.90;;;;;;4119067;28;20038;-75
2021/10/16 01:03:20;;;;;;;4.85;2.20;;;9.70;99.90;;;;;;4136951;28;20034;-74
2021/10/16 01:05:20;;;;;;;3.63;1.95;;;9.70;99.90;;;;;;4136141;28;20042;-74
2021/10/16 01:07:21;;;;;;;5.28;1.95;;;9.70;99.90;;;;;;4140579;28;21362;-74
2021/10/16 01:09:21;;;;;;;3.75;2.22;;;9.70;99.90;;;;;;4137709;28;20645;-74
2021/10/16 01:11:48;;;;;;;5.38;2.13;;;9.60;99.90;;;;;;4137775;28;20391;-74
2021/10/16 01:13:48;;;;;;;4.75;2.35;;;9.60;99.90;;;;;;4143846;28;20045;-74
2021/10/16 01:15:50;;;;;;;5.13;2.45;;;9.60;99.90;;;;;;4134653;28;20033;-74
2021/10/16 01:17:52;;;;;;;9.00;2.53;;;9.60;99.90;;;;;;4138322;28;20910;-74
2021/10/16 01:20:06;;;;;;;5.95;2.25;;;9.60;99.90;;;;;;4137603;28;20045;-74
2021/10/16 01:22:08;;;;;;;7.43;2.60;;;9.60;99.90;;;;;;4127939;28;20042;-74
2021/10/16 01:24:14;;;;;;;9.18;2.72;;;9.60;99.90;;;;;;4129104;28;20371;-74
2021/10/16 01:26:15;;;;;;;8.85;2.63;;;9.60;99.90;;;;;;4140885;28;20042;-74
2021/10/16 01:28:16;;;;;;;6.20;2.67;;;9.50;99.90;;;;;;4134574;28;20148;-75
2021/10/16 01:30:19;;;;;;;5.43;2.30;;;9.50;99.90;;;;;;4132378;28;20097;-74
2021/10/16 01:32:20;;;;;;;5.05;2.50;;;9.50;99.90;;;;;;4144597;28;20022;-74
2021/10/16 01:34:20;;;;;;;7.38;3.00;;;9.50;99.90;;;;;;4140425;28;20042;-74
2021/10/16 01:36:21;;;;;;;5.15;2.22;;;9.50;99.90;;;;;;4140819;28;20046;-74
2021/10/16 01:38:22;;;;;;;6.43;2.53;;;9.50;99.90;;;;;;4143176;28;20044;-74
2021/10/16 01:40:22;;;;;;;4.97;2.25;;;9.50;99.90;;;;;;4139713;28;20041;-74
2021/10/16 01:42:23;;;;;;;4.70;2.45;;;9.50;99.90;;;;;;4135227;28;20045;-75
2021/10/16 01:44:24;;;;;;;4.57;2.00;;;9.50;99.90;;;;;;4140469;28;20561;-75
2021/10/16 01:46:24;;;;;;;5.22;2.33;;;9.50;99.90;;;;;;4123876;28;20060;-74
2021/10/16 01:48:26;;;;;;;4.35;2.10;;;9.50;99.90;;;;;;4128146;28;20042;-74
2021/10/16 01:50:37;;;;;;;7.75;2.42;;;9.50;99.90;;;;;;4129173;28;20058;-74
2021/10/16 01:52:38;;;;;;;7.45;2.42;;;9.50;99.90;;;;;;4142513;28;20386;-75
2021/10/16 01:54:38;;;;;;;6.18;2.60;;;9.40;99.90;;;;;;4142591;28;20030;-74
2021/10/16 01:56:39;;;;;;;4.60;2.45;;;9.40;99.90;;;;;;4144034;28;20041;-75
2021/10/16 01:58:40;;;;;;;4.30;2.15;;;9.50;99.90;;;;;;4140763;28;20092;-75
2021/10/16 02:00:44;;;;;;;6.10;2.55;;;9.40;99.90;;;;;;4144575;28;20112;-74
2021/10/16 02:02:44;;;;;;;5.25;2.22;;;9.40;99.90;;;;;;4138901;28;20689;-74
2021/10/16 02:04:45;;;;;;;5.60;2.40;;;9.30;99.90;;;;;;4145035;28;20087;-74
2021/10/16 02:06:46;;;;;;;4.82;2.17;;;9.30;99.90;;;;;;4138801;28;20061;-74
2021/10/16 02:08:47;;;;;;;4.65;2.20;;;9.30;99.90;;;;;;4136070;28;20049;-75
2021/10/16 02:10:47;;;;;;;6.22;2.67;;;9.30;99.90;;;;;;4139379;28;20097;-74
2021/10/16 02:12:48;;;;;;;4.75;2.10;;;9.20;99.90;;;;;;4138786;28;20080;-74
2021/10/16 02:14:48;;;;;;;5.35;2.15;;;9.20;99.90;;;;;;4136790;28;20401;-74
2021/10/16 02:16:49;;;;;;;7.35;2.50;;;9.20;99.90;;;;;;4138653;28;20111;-75
2021/10/16 02:18:49;;;;;;;4.43;2.15;;;9.20;99.90;;;;;;4138675;28;20049;-74
2021/10/16 02:20:50;;;;;;;4.32;2.13;;;9.20;99.90;;;;;;4140578;28;20117;-74
2021/10/16 02:22:51;;;;;;;5.68;2.20;;;9.20;99.90;;;;;;4140701;28;20075;-74
2021/10/16 02:24:51;;;;;;;4.75;2.30;;;9.20;99.90;;;;;;4130249;28;20042;-74
2021/10/16 02:26:52;;;;;;;3.53;1.70;;;9.20;99.90;;;;;;4140991;28;20113;-74
2021/10/16 02:28:52;;;;;;;4.35;2.00;;;9.20;99.90;;;;;;4141948;28;20033;-75
2021/10/16 02:30:53;;;;;;;5.75;2.28;;;9.20;99.90;;;;;;4134820;28;20429;-74
2021/10/16 02:32:53;;;;;;;4.25;2.00;;;9.20;99.90;;;;;;4138558;28;20095;-74
2021/10/16 02:34:54;;;;;;;4.90;2.10;;;9.10;99.90;;;;;;4117472;28;20039;-74
2021/10/16 02:36:55;;;;;;;3.28;2.00;;;9.10;99.90;;;;;;4137028;28;20490;-74
2021/10/16 02:38:55;;;;;;;4.07;2.22;;;9.10;99.90;;;;;;4133427;28;20042;-74
2021/10/16 02:40:56;;;;;;;5.90;2.50;;;9.00;99.90;;;;;;4141208;28;20029;-74
2021/10/16 02:42:59;;;;;;;4.85;2.60;;;9.10;99.90;;;;;;4144071;28;20407;-74
2021/10/16 02:44:59;;;;;;;4.30;2.53;;;9.10;99.90;;;;;;4139505;28;20042;-74
2021/10/16 02:47:00;;;;;;;5.70;2.65;;;9.10;99.90;;;;;;4130808;28;20494;-74
2021/10/16 02:49:00;;;;;;;4.20;2.47;;;9.00;99.90;;;;;;4139285;28;20034;-74
2021/10/16 02:51:01;;;;;;;4.40;2.47;;;9.00;99.90;;;;;;4135083;28;20485;-74
2021/10/16 02:53:02;;;;;;;5.95;2.42;;;9.00;99.90;;;;;;4141798;28;20046;-74
2021/10/16 02:55:03;;;;;;;5.22;2.58;;;9.00;99.90;;;;;;4138106;28;20041;-74
2021/10/16 02:57:03;;;;;;;4.15;2.55;;;9.00;99.90;;;;;;4135024;28;20303;-74
2021/10/16 02:59:04;;;;;;;4.38;2.67;;;9.00;99.90;;;;;;4133619;28;20499;-74
2021/10/16 03:01:04;;;;;;;4.10;2.60;;;9.00;99.90;;;;;;4141108;28;20042;-74
2021/10/16 03:03:05;;;;;;;7.75;2.47;;;9.00;99.90;;;;;;4132983;28;20041;-74
2021/10/16 03:05:06;;;;;;;4.35;2.33;;;9.00;99.90;;;;;;4138644;28;20502;-74
2021/10/16 03:07:07;;;;;;;4.85;2.90;;;9.00;99.90;;;;;;4134402;28;20034;-74
2021/10/16 03:09:07;;;;;;;4.28;2.63;;;8.90;99.90;;;;;;4133810;28;20101;-74
2021/10/16 03:11:08;;;;;;;6.28;3.03;;;8.90;99.90;;;;;;4139543;28;20410;-75
2021/10/16 03:13:08;;;;;;;4.20;2.45;;;8.90;99.90;;;;;;4138346;28;20042;-74
2021/10/16 03:15:09;;;;;;;6.45;2.55;;;9.00;99.90;;;;;;4137461;28;20034;-74
2021/10/16 03:17:10;;;;;;;9.93;2.42;;;8.90;99.90;;;;;;4135532;28;20034;-74
2021/10/16 03:19:10;;;;;;;5.07;2.08;;;8.90;99.90;;;;;;4135971;28;20030;-74
2021/10/16 03:21:11;;;;;;;4.43;2.30;;;8.90;99.90;;;;;;4131897;28;20061;-74
2021/10/16 03:23:12;;;;;;;4.88;2.38;;;8.90;99.90;;;;;;4134083;28;20602;-74
2021/10/16 03:25:12;;;;;;;6.05;2.80;;;8.90;99.90;;;;;;4135214;28;20030;-74
2021/10/16 03:27:13;;;;;;;5.70;2.35;;;8.80;99.90;;;;;;4138156;28;20124;-74
2021/10/16 03:29:13;;;;;;;6.00;2.55;;;8.80;99.90;;;;;;4134646;28;20109;-74
2021/10/16 03:31:14;;;;;;;3.83;2.17;;;8.80;99.90;;;;;;4138337;28;20053;-74
2021/10/16 03:33:15;;;;;;;6.43;2.35;;;8.80;99.90;;;;;;4134500;28;20043;-74
2021/10/16 03:35:15;;;;;;;5.38;2.60;;;8.80;99.90;;;;;;4133424;28;20057;-74
2021/10/16 03:37:16;;;;;;;4.72;2.50;;;8.80;99.90;;;;;;4135378;28;20033;-74
2021/10/16 03:39:16;;;;;;;5.03;2.58;;;8.80;99.90;;;;;;4130438;28;20097;-74
2021/10/16 03:41:17;;;;;;;4.68;2.30;;;8.80;99.90;;;;;;4134781;28;20034;-74
2021/10/16 03:43:17;;;;;;;4.70;2.25;;;8.80;99.90;;;;;;4132796;28;20037;-74
2021/10/16 03:45:20;;;;;;;8.05;2.03;;;8.80;99.90;;;;;;4137099;28;20029;-74
2021/10/16 03:47:20;;;;;;;4.25;2.35;;;8.70;99.90;;;;;;4136129;28;20041;-74
2021/10/16 03:49:21;;;;;;;7.07;2.67;;;8.70;99.90;;;;;;4139848;28;20537;-74
2021/10/16 03:51:22;;;;;;;5.25;2.40;;;8.70;99.90;;;;;;4131383;28;20038;-75
2021/10/16 03:53:22;;;;;;;3.05;2.08;;;8.70;99.90;;;;;;4131993;28;20076;-74
2021/10/16 03:55:23;;;;;;;6.45;2.55;;;8.70;99.90;;;;;;4134301;28;20038;-74
2021/10/16 03:57:24;;;;;;;4.95;2.22;;;8.70;99.90;;;;;;4135255;28;20057;-74
2021/10/16 03:59:24;;;;;;;3.15;2.00;;;8.70;99.90;;;;;;4135032;28;20053;-74
2021/10/16 04:01:25;;;;;;;4.82;1.73;;;8.70;99.90;;;;;;4138482;28;20561;-74
2021/10/16 04:03:26;;;;;;;3.60;2.25;;;8.70;99.90;;;;;;4136324;28;20025;-74
2021/10/16 04:05:26;;;;;;;3.80;1.90;;;8.60;99.90;;;;;;4138121;28;20034;-74
2021/10/16 04:07:27;;;;;;;3.13;2.15;;;8.70;99.90;;;;;;4139727;28;20128;-74
2021/10/16 04:09:27;;;;;;;5.65;1.90;;;8.60;99.90;;;;;;4133378;28;20037;-74
2021/10/16 04:11:28;;;;;;;4.60;1.92;;;8.60;99.90;;;;;;4136270;28;20034;-74
2021/10/16 04:13:29;;;;;;;3.80;2.30;;;8.60;99.90;;;;;;4137759;28;20030;-74
2021/10/16 04:15:29;;;;;;;5.18;2.42;;;8.50;99.90;;;;;;4137822;28;20053;-75
2021/10/16 04:17:30;;;;;;;3.70;2.13;;;8.50;99.90;;;;;;4143639;28;20674;-74
2021/10/16 04:19:30;;;;;;;8.45;2.10;;;8.50;99.90;;;;;;4140578;28;20034;-75
2021/10/16 04:21:31;;;;;;;4.65;2.45;;;8.50;99.90;;;;;;4140257;28;20034;-75
2021/10/16 04:23:32;;;;;;;6.50;2.85;;;8.50;99.90;;;;;;4136015;28;20109;-75
2021/10/16 04:25:32;;;;;;;4.10;2.28;;;8.50;99.90;;;;;;4143154;28;20502;-75
2021/10/16 04:27:33;;;;;;;6.85;2.50;;;8.50;99.90;;;;;;4145192;28;20034;-75
2021/10/16 04:29:33;;;;;;;4.70;2.17;;;8.50;99.90;;;;;;4139583;28;20042;-75
2021/10/16 04:31:34;;;;;;;5.50;2.40;;;8.50;99.90;;;;;;4139787;28;20134;-75
2021/10/16 04:33:35;;;;;;;5.22;2.30;;;8.50;99.90;;;;;;4138838;28;20030;-74
2021/10/16 04:35:37;;;;;;;4.82;2.13;;;8.50;99.90;;;;;;4141230;28;20141;-74
2021/10/16 04:37:38;;;;;;;3.88;2.20;;;8.50;99.90;;;;;;4143623;28;20038;-74
2021/10/16 04:39:38;;;;;;;3.63;2.08;;;8.50;99.90;;;;;;4143192;28;20037;-74
2021/10/16 04:41:39;;;;;;;4.53;2.17;;;8.40;99.90;;;;;;4117861;28;20031;-74
2021/10/16 04:43:41;;;;;;;6.15;2.80;;;8.40;99.90;;;;;;4147121;28;20037;-74
2021/10/16 04:45:45;;;;;;;5.28;2.50;;;8.40;99.90;;;;;;4138584;28;20038;-74
2021/10/16 04:47:46;;;;;;;6.80;2.10;;;8.50;99.90;;;;;;4138440;28;20023;-74
2021/10/16 04:49:47;;;;;;;6.63;2.03;;;8.40;99.90;;;;;;4135815;28;20026;-74
2021/10/16 04:51:47;;;;;;;4.28;2.15;;;8.40;99.90;;;;;;4134867;28;20039;-74
2021/10/16 04:53:48;;;;;;;6.63;2.25;;;8.40;99.90;;;;;;4137073;28;20038;-74
2021/10/16 04:55:50;;;;;;;4.95;2.30;;;8.30;99.90;;;;;;4141811;28;20595;-74
2021/10/16 04:57:50;;;;;;;6.30;2.63;;;8.30;99.90;;;;;;4139800;28;20068;-74
2021/10/16 04:59:51;;;;;;;4.68;2.22;;;8.30;99.90;;;;;;4142891;28;20030;-74
2021/10/16 05:01:54;;;;;;;6.43;2.15;;;8.30;99.90;;;;;;4142168;28;20393;-74
2021/10/16 05:03:54;;;;;;;3.72;2.10;;;8.20;99.90;;;;;;4138793;28;20061;-74
2021/10/16 05:05:55;;;;;;;5.15;2.03;;;8.30;99.90;;;;;;4141345;28;20713;-74
2021/10/16 05:07:56;;;;;;;6.57;2.42;;;8.30;99.90;;;;;;4142195;28;20768;-74
2021/10/16 05:09:56;;;;;;;3.83;1.90;;;8.30;99.90;;;;;;4140574;28;20038;-74
2021/10/16 05:11:57;;;;;;;4.80;2.10;;;8.30;99.90;;;;;;4147474;28;20056;-74
2021/10/16 05:13:58;;;;;;;4.10;2.22;;;8.30;99.90;;;;;;4140902;28;20045;-74
2021/10/16 05:15:58;;;;;;;4.50;2.33;;;8.30;99.90;;;;;;4147205;28;20044;-74
2021/10/16 05:17:59;;;;;;;8.98;2.67;;;8.30;99.90;;;;;;4143440;28;20129;-74
2021/10/16 05:19:59;;;;;;;4.05;2.40;;;8.30;99.90;;;;;;4141455;28;20439;-74
2021/10/16 05:22:00;;;;;;;7.60;2.53;;;8.30;99.90;;;;;;4142387;28;20065;-74
2021/10/16 05:24:01;;;;;;;3.63;2.15;;;8.30;99.90;;;;;;4140408;28;20038;-74
2021/10/16 05:26:02;;;;;;;3.85;2.22;;;8.20;99.90;;;;;;4141808;28;20073;-74
2021/10/16 05:28:03;;;;;;;3.72;2.05;;;8.30;99.90;;;;;;4140932;28;20025;-74
2021/10/16 05:30:04;;;;;;;4.60;2.35;;;8.20;99.90;;;;;;4140880;28;20057;-74
2021/10/16 05:32:04;;;;;;;4.80;2.38;;;8.20;99.90;;;;;;4137121;28;20553;-74
2021/10/16 05:34:05;;;;;;;6.25;2.60;;;8.20;99.90;;;;;;4137567;28;20031;-74
2021/10/16 05:36:06;;;;;;;5.93;2.55;;;8.20;99.90;;;;;;4130028;28;20076;-74
2021/10/16 05:38:06;;;;;;;5.22;2.63;;;8.20;99.90;;;;;;4136104;28;20027;-74
2021/10/16 05:40:07;;;;;;;5.28;2.38;;;8.20;99.90;;;;;;4130680;28;20435;-74
2021/10/16 05:42:08;;;;;;;4.38;2.50;;;8.20;99.90;;;;;;4135922;28;20034;-74
2021/10/16 05:44:09;;;;;;;5.57;2.25;;;8.20;99.90;;;;;;4140129;28;20029;-74
2021/10/16 05:46:09;;;;;;;4.82;2.30;;;8.10;99.90;;;;;;4139502;28;20042;-74
2021/10/16 05:48:10;;;;;;;4.70;2.15;;;8.10;99.90;;;;;;4136883;28;20046;-74
2021/10/16 05:50:10;;;;;;;7.00;3.25;;;8.10;99.90;;;;;;4141553;28;20070;-74
2021/10/16 05:52:11;;;;;;;6.93;3.35;;;8.10;99.90;;;;;;4137500;28;20044;-74
2021/10/16 05:54:12;;;;;;;8.13;4.30;;;8.00;99.90;;;;;;4124175;28;20085;-74
2021/10/16 05:56:12;;;;;;;12.23;4.85;;;8.00;99.90;;;;;;4141406;28;20037;-74
2021/10/16 05:58:13;;;;;;;8.80;5.00;;;8.00;99.90;;;;;;4138950;28;20041;-74
2021/10/16 06:00:14;;;;;;;8.70;5.18;;;8.00;99.90;;;;;;4140890;28;20230;-74
2021/10/16 06:02:14;;;;;;;8.65;4.63;;;7.90;99.90;;;;;;4142024;28;20033;-74
2021/10/16 06:04:15;;;;;;;10.15;4.20;;;7.90;99.90;;;;;;4139790;28;20041;-74
2021/10/16 06:06:16;;;;;;;8.13;3.78;;;8.00;99.90;;;;;;4134863;28;20064;-74
2021/10/16 06:08:16;;;;;;;8.40;3.30;;;8.00;99.90;;;;;;4126219;28;20030;-74
2021/10/16 06:10:17;;;;;;;6.30;3.53;;;8.00;99.90;;;;;;4139919;28;20033;-74
2021/10/16 06:12:18;;;;;;;7.40;3.45;;;8.00;99.90;;;;;;4130604;28;20045;-74
2021/10/16 06:14:19;;;;;;;5.53;3.22;;;8.10;99.90;;;;;;4138100;28;20041;-74
2021/10/16 06:16:19;;;;;;;8.48;3.30;;;8.10;99.90;;;;;;4130949;28;20039;-75
2021/10/16 06:18:24;;;;;;;10.40;3.70;;;8.10;99.90;;;;;;4132063;28;20517;-74
2021/10/16 06:20:30;;;;;;;7.00;3.30;;;8.10;99.90;;;;;;4133656;28;20052;-75
2021/10/16 06:22:31;;;;;;;7.35;3.30;;;8.10;99.90;;;;;;4134805;28;20371;-75
2021/10/16 06:24:31;;;;;;;5.28;3.30;;;8.10;99.90;;;;;;4134248;28;20034;-77
2021/10/16 06:26:33;;;;;;;8.40;4.30;;;8.10;99.90;;;;;;4139406;28;20038;-77
2021/10/16 06:28:34;;;;;;;6.70;3.40;;;8.10;99.90;;;;;;4136889;28;20490;-76
2021/10/16 06:30:35;;;;;;;7.20;3.10;;;8.10;99.90;;;;;;4126206;28;20041;-76
2021/10/16 06:32:36;;;;;;;5.53;3.13;;;8.10;99.90;;;;;;4126785;28;20049;-76
2021/10/16 06:34:38;;;;;;;4.85;3.00;;;8.20;99.90;;;;;;4138384;28;20040;-77
2021/10/16 06:36:38;;;;;;;5.27;3.00;;;8.20;99.90;;;;;;4139044;28;20046;-77
2021/10/16 06:38:39;;;;;;;6.32;2.92;;;8.20;99.90;;;;;;4126202;28;20831;-76
2021/10/16 06:40:40;;;;;;;7.65;3.20;;;8.20;99.90;;;;;;4138414;28;20144;-77
2021/10/16 06:42:41;;;;;;;5.40;3.40;;;8.20;99.90;;;;;;4141244;28;20117;-77
2021/10/16 06:44:42;;;;;;;8.73;3.45;;;8.20;99.90;;;;;;4138745;28;20121;-77
2021/10/16 06:46:43;;;;;;;6.38;3.20;;;8.20;99.90;;;;;;4141266;28;20069;-76
2021/10/16 06:48:43;;;;;;;8.70;3.90;;;8.20;99.90;;;;;;4143072;28;20482;-77
2021/10/16 06:50:47;;;;;;;8.40;3.38;;;8.20;99.90;;;;;;4142557;28;20041;-77
2021/10/16 06:52:47;;;;;;;6.00;3.50;;;8.20;99.90;;;;;;4137863;28;20115;-77
2021/10/16 06:54:48;;;;;;;9.32;3.88;;;8.20;99.90;;;;;;4136289;28;20026;-77
2021/10/16 06:56:48;;;;;;;9.77;4.30;;;8.20;99.90;;;;;;4137743;28;20105;-77
2021/10/16 06:58:49;;;;;;;6.55;4.30;;;8.30;99.90;;;;;;4140154;28;20045;-77
2021/10/16 07:00:50;;;;;;;8.90;4.95;;;8.30;99.90;;;;;;4137666;28;20038;-77
2021/10/16 07:02:50;;;;;;;8.63;4.93;;;8.30;99.90;;;;;;4140707;28;20429;-77
2021/10/16 07:04:51;;;;;;;9.93;4.57;;;8.40;99.90;;;;;;4140289;28;20030;-77
2021/10/16 07:06:51;;;;;;;7.38;4.63;;;8.40;99.90;;;;;;4139871;28;20030;-76
2021/10/16 07:08:52;;;;;;;8.50;3.97;;;8.40;99.90;;;;;;4142736;28;20108;-77
2021/10/16 07:10:53;;;;;;;7.13;4.35;;;8.50;99.90;;;;;;4140880;28;20037;-76
2021/10/16 07:12:53;;;;;;;10.95;4.57;;;8.50;99.90;;;;;;4141297;28;20052;-77
2021/10/16 07:14:54;;;;;;;8.35;3.70;;;8.50;99.90;;;;;;4136496;28;20093;-77
2021/10/16 07:16:54;;;;;;;9.13;4.45;;;8.60;99.90;;;;;;4138935;28;22735;-77
2021/10/16 07:18:55;;;;;;;8.20;4.10;;;8.60;99.90;;;;;;4136285;28;20040;-77
2021/10/16 07:20:56;;;;;;;9.85;4.30;;;8.70;99.90;;;;;;4143561;28;20056;-77
2021/10/16 07:22:57;;;;;;;9.85;4.28;;;8.70;99.90;;;;;;4138630;28;21158;-77
2021/10/16 07:24:57;;;;;;;8.60;4.35;;;8.80;99.90;;;;;;4139839;28;20088;-76
2021/10/16 07:26:58;;;;;;;5.60;3.47;;;8.90;99.90;;;;;;4139529;28;20038;-77
2021/10/16 07:28:58;;;;;;;10.50;3.90;;;8.90;99.90;;;;;;4139772;28;20113;-76
2021/10/16 07:30:59;;;;;;;10.15;4.47;;;9.00;99.90;;;;;;4139308;28;20164;-76
2021/10/16 07:33:01;;;;;;;8.43;4.85;;;9.10;99.90;;;;;;4140128;28;20117;-77
2021/10/16 07:35:01;;;;;;;12.10;5.22;;;9.20;99.90;;;;;;4136201;28;20691;-76
2021/10/16 07:37:02;;;;;;;8.50;4.20;;;9.20;99.90;;;;;;4144163;28;20030;-72
2021/10/16 07:39:08;;;;;;;7.93;4.70;;;9.30;99.90;;;;;;4135672;28;20424;-72
2021/10/16 07:41:08;;;;;;;7.68;4.05;;;9.40;99.90;;;;;;4136307;28;20033;-72
2021/10/16 07:43:10;;;;;;;12.00;5.03;;;9.40;99.90;;;;;;4138715;28;20084;-72
2021/10/16 07:45:10;;;;;;;11.15;4.88;;;9.50;99.90;;;;;;4136907;28;20113;-72
2021/10/16 07:47:11;;;;;;;9.93;4.50;;;9.50;99.90;;;;;;4134427;28;20073;-72
2021/10/16 07:49:11;;;;;;;9.02;4.65;;;9.60;99.90;;;;;;4136884;28;20034;-72
2021/10/16 07:51:12;;;;;;;8.43;4.68;;;9.60;99.90;;;;;;4136745;28;20042;-72
2021/10/16 07:53:13;;;;;;;10.20;5.45;;;9.70;99.90;;;;;;4137340;28;20026;-72
2021/10/16 07:55:13;;;;;;;12.02;5.15;;;9.70;99.90;;;;;;4138569;28;20042;-72
2021/10/16 07:57:14;;;;;;;14.00;4.97;;;9.70;99.90;;;;;;4133810;28;20057;-72
2021/10/16 07:59:15;;;;;;;7.57;4.43;;;9.70;99.90;;;;;;4139719;28;20447;-72
2021/10/16 08:01:16;;;;;;;8.93;4.43;;;9.80;99.90;;;;;;4131588;28;20045;-72
2021/10/16 08:03:16;;;;;;;10.68;4.72;;;9.80;99.90;;;;;;4133167;28;20061;-72
2021/10/16 08:05:17;;;;;;;10.15;4.68;;;9.90;99.90;;;;;;4131050;28;20525;-72
2021/10/16 08:07:18;;;;;;;14.20;5.55;;;9.90;99.90;;;;;;4134478;28;20125;-72
2021/10/16 08:09:19;;;;;;;13.23;5.28;;;9.90;99.90;;;;;;4129772;28;20568;-72
2021/10/16 08:11:20;;;;;;;13.63;5.50;;;10.00;99.90;;;;;;4132407;28;20041;-72
2021/10/16 08:13:20;;;;;;;11.02;5.97;;;10.00;99.90;;;;;;4126828;28;20035;-72
2021/10/16 08:15:21;;;;;;;13.05;5.65;;;10.00;99.90;;;;;;4135525;28;20101;-72
2021/10/16 08:17:22;;;;;;;11.82;5.53;;;10.10;99.90;;;;;;4131914;28;20070;-72
2021/10/16 08:19:22;;;;;;;10.70;5.95;;;10.00;99.90;;;;;;4130764;28;20038;-72
2021/10/16 08:21:23;;;;;;;12.68;5.78;;;10.00;99.90;;;;;;4135193;28;20048;-71
2021/10/16 08:23:24;;;;;;;11.30;5.13;;;10.10;99.90;;;;;;4136061;28;20270;-72
2021/10/16 08:25:24;;;;;;;9.75;5.18;;;10.10;99.90;;;;;;4135210;28;20049;-72
2021/10/16 08:27:25;;;;;;;11.07;5.28;;;10.10;99.90;;;;;;4132818;28;20063;-72
2021/10/16 08:29:26;;;;;;;10.98;5.78;;;10.10;99.90;;;;;;4141439;28;20033;-72
2021/10/16 08:31:27;;;;;;;16.45;6.82;;;10.10;99.90;;;;;;4132894;28;20101;-72
2021/10/16 08:33:29;;;;;;;13.75;6.80;;;10.10;99.90;;;;;;4136139;28;20050;-72
2021/10/16 08:35:30;;;;;;;15.90;7.43;;;10.20;99.90;;;;;;4130177;28;20041;-72
2021/10/16 08:37:31;;;;;;;17.02;8.75;;;10.20;99.90;;;;;;4136194;28;20390;-72
2021/10/16 08:39:32;;;;;;;20.10;9.35;;;10.20;99.90;;;;;;4132286;28;20481;-72
2021/10/16 08:41:36;;;;;;;15.57;9.27;;;10.30;99.90;;;;;;4127012;28;20037;-72
2021/10/16 08:43:37;;;;;;;20.90;10.93;;;10.40;99.90;;;;;;4139674;28;20068;-73
2021/10/16 08:45:37;;;;;;;19.70;10.32;;;10.40;99.90;;;;;;4139054;28;20042;-72
2021/10/16 08:47:39;;;;;;;16.25;9.07;;;10.40;99.90;;;;;;4138166;28;20122;-72
2021/10/16 08:49:44;;;;;;;19.45;8.13;;;10.40;99.90;;;;;;4131497;28;20430;-72
2021/10/16 08:51:44;;;;;;;12.20;6.18;;;10.40;99.90;;;;;;4129506;28;20030;-72
2021/10/16 08:53:45;;;;;;;31.30;6.22;;;10.40;99.90;;;;;;4125263;28;20502;-72
2021/10/16 08:55:50;;;;;;;15.60;6.13;;;10.40;99.90;;;;;;4126637;28;20038;-72
2021/10/16 08:57:51;;;;;;;14.02;6.38;;;10.40;99.90;;;;;;4133980;28;20506;-72
2021/10/16 08:59:51;;;;;;;12.15;5.97;;;10.50;99.90;;;;;;4129611;28;20029;-72
2021/10/16 09:02:02;;;;;;;12.90;5.70;;;10.50;99.90;;;;;;4137108;28;20030;-72
2021/10/16 09:04:03;;;;;;;15.80;6.22;;;10.50;99.90;;;;;;4131381;28;21260;-72
2021/10/16 09:06:24;;;;;;;12.38;5.07;;;10.50;99.90;;;;;;4133952;28;20045;-72
2021/10/16 09:08:51;;;;;;;20.70;5.95;;;10.60;99.90;;;;;;4131279;28;20038;-72
2021/10/16 09:11:03;;;;;;;13.45;6.30;;;10.70;99.90;;;;;;4124944;28;20109;-72
2021/10/16 09:13:03;;;;;;;11.68;5.90;;;10.70;99.90;;;;;;4141685;28;20112;-72
2021/10/16 09:15:22;;;;;;;14.50;6.88;;;10.80;99.90;;;;;;4140618;28;20034;-72
2021/10/16 09:17:23;;;;;;;12.45;6.78;;;10.80;99.90;;;;;;4118651;28;20031;-73
2021/10/16 09:19:25;;;;;;;11.85;6.13;;;10.90;99.90;;;;;;4130779;28;20106;-72
2021/10/16 09:21:28;;;;;;;11.80;6.20;;;10.90;99.90;;;;;;4136211;28;20065;-72
2021/10/16 09:23:28;;;;;;;11.82;6.18;;;11.00;99.90;;;;;;4145798;28;20045;-73
2021/10/16 09:25:29;;;;;;;14.32;6.32;;;11.00;99.90;;;;;;4140657;28;20026;-72
2021/10/16 09:27:30;;;;;;;11.95;6.28;;;11.00;99.90;;;;;;4141877;28;20042;-73
2021/10/16 09:29:34;;;;;;;15.98;7.10;;;11.10;99.90;;;;;;4140115;28;20030;-72
2021/10/16 09:31:38;;;;;;;12.23;5.85;;;11.20;99.90;;;;;;4143294;28;20444;-73
2021/10/16 09:33:48;;;;;;;15.02;6.95;;;11.20;99.90;;;;;;4132906;28;20046;-72
2021/10/16 09:35:48;;;;;;;12.05;5.72;;;11.30;99.90;;;;;;4135534;28;20065;-72
2021/10/16 09:37:53;;;;;;;12.20;6.45;;;11.40;99.90;;;;;;4135560;28;20510;-72
2021/10/16 09:39:56;;;;;;;16.20;7.18;;;11.50;99.90;;;;;;4139806;28;20095;-72
2021/10/16 09:41:57;;;;;;;14.10;6.82;;;11.50;99.90;;;;;;4137041;28;20026;-72
2021/10/16 09:43:57;;;;;;;15.82;6.90;;;11.60;99.90;;;;;;4135117;28;20038;-73
2021/10/16 09:46:16;;;;;;;14.80;6.88;;;11.70;99.90;;;;;;4136836;28;20077;-72
2021/10/16 09:48:36;;;;;;;16.52;6.75;;;11.90;99.90;;;;;;4130516;28;20041;-72
2021/10/16 09:50:36;;;;;;;14.77;5.75;;;12.00;99.90;;;;;;4130974;28;20610;-73
2021/10/16 09:52:39;;;;;;;16.13;6.60;;;12.20;99.90;;;;;;4132374;28;20026;-73
2021/10/16 09:54:44;;;;;;;;;;;12.20;99.90;;;;;;4138828;28;20057;-72
2021/10/16 09:56:45;;;;;;;16.45;5.90;;;12.40;99.90;;;;;;4137256;28;20004;-72
2021/10/16 09:58:48;;;;;;;12.95;5.68;;;12.50;99.90;;;;;;4134800;28;20045;-72
2021/10/16 10:00:52;;;;;;;14.82;5.53;;;12.60;99.90;;;;;;4136828;28;20050;-72
2021/10/16 10:02:57;;;;;;;16.30;6.05;;;12.70;99.90;;;;;;4133296;28;20550;-73
2021/10/16 10:05:02;;;;;;;15.63;5.20;;;12.90;99.90;;;;;;4135393;28;20148;-72
2021/10/16 10:07:04;;;;;;;11.75;5.57;;;12.90;99.90;;;;;;4136483;28;20050;-72
2021/10/16 10:09:08;;;;;;;15.48;6.32;;;13.00;99.90;;;;;;4129430;28;20679;-73
2021/10/16 10:11:11;;;;;;;12.25;5.43;;;13.20;99.90;;;;;;4134061;28;20049;-72
2021/10/16 10:13:13;;;;;;;16.35;5.93;;;13.20;99.90;;;;;;4139266;28;20193;-73
2021/10/16 10:15:14;;;;;;;14.57;5.00;;;13.30;99.90;;;;;;4135462;28;20031;-72
2021/10/16 10:17:29;;;;;;;18.92;6.40;;;13.40;99.90;;;;;;4138867;28;20064;-72
2021/10/16 10:19:37;;;;;;;16.75;6.50;;;13.40;99.90;;;;;;4132487;28;20478;-73
2021/10/16 10:21:38;;;;;;;17.65;5.40;;;13.50;99.90;;;;;;4135185;28;20040;-73
2021/10/16 10:23:56;;;;;;;11.23;4.55;;;13.50;99.90;;;;;;4131001;28;20049;-73
2021/10/16 10:26:32;;;;;;;11.93;4.55;;;13.50;99.90;;;;;;4117982;28;20093;-72
2021/10/16 10:28:52;;;;;;;12.02;4.35;;;13.60;99.90;;;;;;4129881;28;20474;-72
2021/10/16 10:30:53;;;;;;;13.43;4.65;;;13.60;99.90;;;;;;4131867;28;20034;-73
2021/10/16 10:33:18;;;;;;;16.60;5.68;;;13.70;99.90;;;;;;4138839;28;20070;-73
2021/10/16 10:35:19;;;;;;;11.70;5.65;;;13.70;99.90;;;;;;4134775;28;20042;-73
2021/10/16 10:37:19;;;;;;;19.00;6.32;;;13.80;99.90;;;;;;4135562;28;20423;-73
2021/10/16 10:39:32;;;;;;;15.65;7.03;;;13.80;99.90;;;;;;4134319;28;20033;-72